createdAt,value
2023-04-22T00:02:48.239Z,9.70
2023-04-22T00:05:50.555Z,9.70
2023-04-22T00:08:53.156Z,9.90
2023-04-22T00:11:55.167Z,9.60
2023-04-22T00:14:58.544Z,9.60
2023-04-22T00:18:00.418Z,9.60
2023-04-22T00:21:09.450Z,9.70
2023-04-22T00:24:11.421Z,9.80
2023-04-22T00:27:13.225Z,9.90
2023-04-22T00:30:15.355Z,9.90
2023-04-22T00:33:17.172Z,9.80
2023-04-22T00:36:19.118Z,9.70
2023-04-22T00:39:24.114Z,9.80
2023-04-22T00:42:27.285Z,9.70
2023-04-22T00:45:30.820Z,9.80
2023-04-22T00:48:32.695Z,9.80
2023-04-22T00:51:34.905Z,9.90
2023-04-22T00:54:36.911Z,9.90
2023-04-22T00:57:40.050Z,9.70
2023-04-22T01:00:41.953Z,9.80
2023-04-22T01:03:44.111Z,9.90
2023-04-22T01:06:47.479Z,9.80
2023-04-22T01:09:54.665Z,9.90
2023-04-22T01:12:56.467Z,9.70
2023-04-22T01:16:00.030Z,9.80
2023-04-22T01:19:02.491Z,9.90
2023-04-22T01:22:05.929Z,9.90
2023-04-22T01:25:09.360Z,9.90
2023-04-22T01:28:12.472Z,9.80
2023-04-22T01:31:14.850Z,9.70
2023-04-22T01:34:18.572Z,9.60
2023-04-22T01:37:20.472Z,9.40
2023-04-22T01:40:23.428Z,9.40
2023-04-22T01:43:26.083Z,9.50
2023-04-22T01:46:27.998Z,9.60
2023-04-22T01:49:29.915Z,9.70
2023-04-22T01:52:36.580Z,9.80
2023-04-22T01:55:39.300Z,9.60
2023-04-22T01:58:41.573Z,9.70
2023-04-22T02:01:47.404Z,9.70
2023-04-22T02:04:50.082Z,9.80
2023-04-22T02:07:53.444Z,9.90
2023-04-22T02:10:57.037Z,9.70
2023-04-22T02:13:58.909Z,9.60
2023-04-22T02:17:02.320Z,9.50
2023-04-22T02:20:04.958Z,9.50
2023-04-22T02:23:07.109Z,9.50
2023-04-22T02:26:08.947Z,9.50
2023-04-22T02:29:10.931Z,9.50
2023-04-22T02:32:13.055Z,9.50
2023-04-22T02:35:15.063Z,9.50
2023-04-22T02:38:16.857Z,9.50
2023-04-22T02:41:20.975Z,9.70
2023-04-22T02:44:23.347Z,9.70
2023-04-22T02:47:30.115Z,9.50
2023-04-22T02:50:31.886Z,9.50
2023-04-22T02:53:41.450Z,9.70
2023-04-22T02:56:43.444Z,9.70
2023-04-22T02:59:46.178Z,9.70
2023-04-22T03:02:48.148Z,9.70
2023-04-22T03:05:50.912Z,9.70
2023-04-22T03:08:52.753Z,9.60
2023-04-22T03:11:55.504Z,9.60
2023-04-22T03:14:57.292Z,9.60
2023-04-22T03:17:59.323Z,9.60
2023-04-22T03:21:01.270Z,9.60
2023-04-22T03:24:03.179Z,9.50
2023-04-22T03:27:05.558Z,9.50
2023-04-22T03:30:12.811Z,9.60
2023-04-22T03:33:14.656Z,9.70
2023-04-22T03:36:17.419Z,9.70
2023-04-22T03:39:19.230Z,9.80
2023-04-22T03:42:21.069Z,9.80
2023-04-22T03:45:24.286Z,9.80
2023-04-22T03:48:27.793Z,9.70
2023-04-22T03:51:29.770Z,9.50
2023-04-22T03:54:31.716Z,9.50
2023-04-22T03:57:33.557Z,9.50
2023-04-22T04:00:35.481Z,9.50
2023-04-22T04:03:37.552Z,9.30
2023-04-22T04:06:40.433Z,9.60
2023-04-22T04:09:42.472Z,9.70
2023-04-22T04:12:44.546Z,9.40
2023-04-22T04:15:47.282Z,9.50
2023-04-22T04:18:52.395Z,9.60
2023-04-22T04:21:54.317Z,9.60
2023-04-22T04:24:56.208Z,9.60
2023-04-22T04:27:58.298Z,9.50
2023-04-22T04:31:04.995Z,9.60
2023-04-22T04:34:07.413Z,9.50
2023-04-22T04:37:09.356Z,9.50
2023-04-22T04:40:12.433Z,9.50
2023-04-22T04:43:19.094Z,9.50
2023-04-22T04:46:21.147Z,9.60
2023-04-22T04:49:23.041Z,9.50
2023-04-22T04:52:24.837Z,9.30
2023-04-22T04:55:28.296Z,9.40
2023-04-22T04:58:30.264Z,9.50
2023-04-22T05:01:33.824Z,9.70
2023-04-22T05:04:35.713Z,9.40
2023-04-22T05:07:37.929Z,9.40
2023-04-22T05:10:39.850Z,9.40
2023-04-22T05:13:41.774Z,9.20
2023-04-22T05:16:43.761Z,9.30
2023-04-22T05:19:45.615Z,9.30
2023-04-22T05:22:47.598Z,9.40
2023-04-22T05:25:51.438Z,9.50
2023-04-22T05:28:56.197Z,9.60
2023-04-22T05:31:58.386Z,9.50
2023-04-22T05:35:00.404Z,9.60
2023-04-22T05:38:03.935Z,9.60
2023-04-22T05:41:05.985Z,9.50
2023-04-22T05:44:09.202Z,9.50
2023-04-22T05:47:11.210Z,9.60
2023-04-22T05:50:21.257Z,9.60
2023-04-22T05:53:24.792Z,9.60
2023-04-22T05:56:27.754Z,9.60
2023-04-22T05:59:29.628Z,9.70
2023-04-22T06:02:33.128Z,9.80
2023-04-22T06:05:35.159Z,9.80
2023-04-22T06:08:37.301Z,10.00
2023-04-22T06:11:39.100Z,10.10
2023-04-22T06:14:42.534Z,10.10
2023-04-22T06:17:45.606Z,10.20
2023-04-22T06:20:47.402Z,10.30
2023-04-22T06:23:49.316Z,10.30
2023-04-22T06:26:51.469Z,10.20
2023-04-22T06:29:53.356Z,10.30
2023-04-22T06:32:55.739Z,10.40
2023-04-22T06:35:57.600Z,10.50
2023-04-22T06:38:59.713Z,10.60
2023-04-22T06:42:03.392Z,10.60
2023-04-22T06:45:07.233Z,10.70
2023-04-22T06:48:08.959Z,10.80
2023-04-22T06:51:11.056Z,10.90
2023-04-22T06:54:12.848Z,10.90
2023-04-22T06:57:14.952Z,11.00
2023-04-22T07:00:17.178Z,11.10
2023-04-22T07:03:20.742Z,11.20
2023-04-22T07:06:22.724Z,11.20
2023-04-22T07:09:24.792Z,11.30
2023-04-22T07:12:26.817Z,11.40
2023-04-22T07:15:28.643Z,11.50
2023-04-22T07:18:30.658Z,11.60
2023-04-22T07:21:33.897Z,11.70
2023-04-22T07:24:35.900Z,11.90
2023-04-22T07:27:40.756Z,12.20
2023-04-22T07:30:43.214Z,12.50
2023-04-22T07:33:44.981Z,12.70
2023-04-22T07:36:46.869Z,12.80
2023-04-22T07:39:54.174Z,13.10
2023-04-22T07:42:56.630Z,13.30
2023-04-22T07:45:58.730Z,13.40
2023-04-22T07:49:00.741Z,13.60
2023-04-22T07:52:07.336Z,13.80
2023-04-22T07:55:09.622Z,14.00
2023-04-22T07:58:12.172Z,14.10
2023-04-22T08:01:13.992Z,14.30
2023-04-22T08:04:20.924Z,14.50
2023-04-22T08:10:28.322Z,14.90
2023-04-22T08:13:30.475Z,15.00
2023-04-22T08:16:32.468Z,15.10
2023-04-22T08:19:34.201Z,15.30
2023-04-22T08:22:36.730Z,15.40
2023-04-22T08:25:38.782Z,15.50
2023-04-22T08:28:41.562Z,15.70
2023-04-22T08:31:43.442Z,15.80
2023-04-22T08:34:51.817Z,15.80
2023-04-22T08:37:54.097Z,15.80
2023-04-22T08:40:57.982Z,15.80
2023-04-22T08:44:01.498Z,15.80
2023-04-22T08:47:03.837Z,15.90
2023-04-22T08:50:07.212Z,15.80
2023-04-22T08:53:09.031Z,15.90
2023-04-22T08:56:14.200Z,16.10
2023-04-22T08:59:17.494Z,16.20
2023-04-22T09:02:24.428Z,16.30
2023-04-22T09:05:28.105Z,16.40
2023-04-22T09:08:30.428Z,16.50
2023-04-22T09:11:33.771Z,16.70
2023-04-22T09:14:36.984Z,16.80
2023-04-22T09:17:39.274Z,16.90
2023-04-22T09:20:43.399Z,16.90
2023-04-22T09:23:54.557Z,17.10
2023-04-22T09:26:57.382Z,17.30
2023-04-22T09:30:00.179Z,17.40
2023-04-22T09:33:04.656Z,17.40
2023-04-22T09:36:10.133Z,17.50
2023-04-22T09:39:12.079Z,17.70
2023-04-22T09:42:14.733Z,18.00
2023-04-22T09:45:30.250Z,18.10
2023-04-22T09:48:32.058Z,18.20
2023-04-22T09:51:34.661Z,18.20
2023-04-22T09:54:37.826Z,18.30
2023-04-22T09:57:39.627Z,18.30
2023-04-22T10:00:48.238Z,18.30
2023-04-22T10:03:50.641Z,18.40
2023-04-22T10:06:56.475Z,18.30
2023-04-22T10:09:58.484Z,18.20
2023-04-22T10:13:03.946Z,18.10
2023-04-22T10:16:07.005Z,18.00
2023-04-22T10:19:13.890Z,17.90
2023-04-22T10:22:16.175Z,17.80
2023-04-22T10:25:26.086Z,17.70
2023-04-22T10:28:30.235Z,17.60
2023-04-22T10:31:32.915Z,17.50
2023-04-22T10:34:37.221Z,17.40
2023-04-22T10:37:42.596Z,17.40
2023-04-22T10:41:00.517Z,17.30
2023-04-22T10:44:08.054Z,17.30
2023-04-22T10:47:09.950Z,17.30
2023-04-22T10:50:20.181Z,17.30
2023-04-22T10:53:38.355Z,17.20
2023-04-22T10:57:03.027Z,17.10
2023-04-22T11:00:41.870Z,17.00
2023-04-22T11:03:54.087Z,17.00
2023-04-22T11:07:20.793Z,17.00
2023-04-22T11:10:52.446Z,17.00
2023-04-22T11:13:55.387Z,17.00
2023-04-22T11:16:57.364Z,17.00
2023-04-22T11:20:00.188Z,16.90
2023-04-22T11:23:08.129Z,16.90
2023-04-22T11:26:09.916Z,16.90
2023-04-22T11:29:13.232Z,17.00
2023-04-22T11:32:15.073Z,17.00
2023-04-22T11:35:24.555Z,17.10
2023-04-22T11:38:26.478Z,17.00
2023-04-22T11:41:30.055Z,17.00
2023-04-22T11:44:32.347Z,17.00
2023-04-22T11:47:37.804Z,17.00
2023-04-22T11:50:42.084Z,17.00
2023-04-22T11:53:51.303Z,17.10
2023-04-22T11:56:53.181Z,17.10
2023-04-22T11:59:59.271Z,17.10
2023-04-22T12:03:03.908Z,17.20
2023-04-22T12:06:06.429Z,17.20
2023-04-22T12:09:08.402Z,17.20
2023-04-22T12:12:13.364Z,17.30
2023-04-22T12:15:17.502Z,17.30
2023-04-22T12:18:37.498Z,17.20
2023-04-22T12:21:42.163Z,17.20
2023-04-22T12:24:48.072Z,17.10
2023-04-22T12:27:49.904Z,16.90
2023-04-22T12:30:51.873Z,16.90
2023-04-22T12:33:54.080Z,16.70
2023-04-22T12:36:56.392Z,16.70
2023-04-22T12:39:58.497Z,16.60
2023-04-22T12:43:06.035Z,16.60
2023-04-22T12:46:09.801Z,16.50
2023-04-22T12:49:14.384Z,16.50
2023-04-22T12:52:16.128Z,16.50
2023-04-22T12:55:23.376Z,16.50
2023-04-22T12:58:26.095Z,16.50
2023-04-22T13:01:27.950Z,16.50
2023-04-22T13:04:29.806Z,16.50
2023-04-22T13:07:31.821Z,16.50
2023-04-22T13:10:34.104Z,16.20
2023-04-22T13:13:35.980Z,16.20
2023-04-22T13:16:37.950Z,16.00
2023-04-22T13:19:40.964Z,16.10
2023-04-22T13:22:43.191Z,16.00
2023-04-22T13:25:45.113Z,16.00
2023-04-22T13:28:47.071Z,15.90
2023-04-22T13:31:53.790Z,15.90
2023-04-22T13:34:55.591Z,15.90
2023-04-22T13:37:58.437Z,15.90
2023-04-22T13:41:01.992Z,15.90
2023-04-22T13:44:05.756Z,15.90
2023-04-22T13:47:08.143Z,16.00
2023-04-22T13:50:12.075Z,16.00
2023-04-22T13:53:14.186Z,16.10
2023-04-22T13:56:16.266Z,16.10
2023-04-22T13:59:18.176Z,16.10
2023-04-22T14:02:20.959Z,16.00
2023-04-22T14:05:22.918Z,16.10
2023-04-22T14:08:25.714Z,16.10
2023-04-22T14:11:27.503Z,16.10
2023-04-22T14:14:35.635Z,16.00
2023-04-22T14:17:37.448Z,16.00
2023-04-22T14:20:40.328Z,16.00
2023-04-22T14:23:42.831Z,15.90
2023-04-22T14:26:44.819Z,15.90
2023-04-22T14:29:46.813Z,15.90
2023-04-22T14:32:50.346Z,15.90
2023-04-22T14:35:53.447Z,15.80
2023-04-22T14:38:56.010Z,15.80
2023-04-22T14:41:58.782Z,15.80
2023-04-22T14:45:00.729Z,15.80
2023-04-22T14:48:03.499Z,15.80
2023-04-22T14:51:09.085Z,15.80
2023-04-22T14:54:11.002Z,15.80
2023-04-22T14:57:12.798Z,15.80
2023-04-22T15:00:15.021Z,15.80
2023-04-22T15:03:23.248Z,15.80
2023-04-22T15:06:25.706Z,15.80
2023-04-22T15:09:27.922Z,15.70
2023-04-22T15:12:29.662Z,15.70
2023-04-22T15:15:31.416Z,15.70
2023-04-22T15:18:33.450Z,15.70
2023-04-22T15:21:36.123Z,15.60
2023-04-22T15:24:37.843Z,15.60
2023-04-22T15:27:40.646Z,15.60
2023-04-22T15:30:42.760Z,15.50
2023-04-22T15:33:44.931Z,15.50
2023-04-22T15:36:46.733Z,15.50
2023-04-22T15:39:48.745Z,15.40
2023-04-22T15:42:51.813Z,15.40
2023-04-22T15:45:58.361Z,15.40
2023-04-22T15:49:00.686Z,15.30
2023-04-22T15:52:02.586Z,15.40
2023-04-22T15:55:05.583Z,15.40
2023-04-22T15:58:07.401Z,15.40
2023-04-22T16:01:19.010Z,15.30
2023-04-22T16:04:21.626Z,15.30
2023-04-22T16:07:23.693Z,15.30
2023-04-22T16:10:27.485Z,15.30
2023-04-22T16:13:29.728Z,15.30
2023-04-22T16:16:35.510Z,15.30
2023-04-22T16:19:37.412Z,15.30
2023-04-22T16:22:39.272Z,15.30
2023-04-22T16:25:41.917Z,15.30
2023-04-22T16:28:43.836Z,15.30
2023-04-22T16:31:45.917Z,15.20
2023-04-22T16:34:47.704Z,15.20
2023-04-22T16:37:49.783Z,15.10
2023-04-22T16:40:54.322Z,15.20
2023-04-22T16:44:03.513Z,15.10
2023-04-22T16:47:06.869Z,15.00
2023-04-22T16:50:12.507Z,14.90
2023-04-22T16:53:15.047Z,14.80
2023-04-22T16:56:17.057Z,14.70
2023-04-22T16:59:18.908Z,14.70
2023-04-22T17:02:21.010Z,14.60
2023-04-22T17:05:22.890Z,14.40
2023-04-22T17:08:24.826Z,14.40
2023-04-22T17:11:26.865Z,14.30
2023-04-22T17:14:29.018Z,14.20
2023-04-22T17:17:30.854Z,14.10
2023-04-22T17:20:32.655Z,14.20
2023-04-22T17:23:36.066Z,14.20
2023-04-22T17:26:37.960Z,14.20
2023-04-22T17:29:40.062Z,14.20
2023-04-22T17:32:42.110Z,14.20
2023-04-22T17:35:44.062Z,14.20
2023-04-22T17:38:46.102Z,14.20
2023-04-22T17:41:47.883Z,14.10
2023-04-22T17:44:50.654Z,14.20
2023-04-22T17:47:52.528Z,14.10
2023-04-22T17:50:54.516Z,14.10
2023-04-22T17:53:57.161Z,14.00
2023-04-22T17:56:59.075Z,14.00
2023-04-22T18:00:01.111Z,13.90
2023-04-22T18:03:05.063Z,13.90
2023-04-22T18:06:07.467Z,13.90
2023-04-22T18:09:09.472Z,13.80
2023-04-22T18:12:11.449Z,13.80
2023-04-22T18:15:13.250Z,13.60
2023-04-22T18:18:16.197Z,13.40
2023-04-22T18:21:18.076Z,13.30
2023-04-22T18:24:20.061Z,13.30
2023-04-22T18:27:21.787Z,13.20
2023-04-22T18:30:24.597Z,13.10
2023-04-22T18:33:26.947Z,13.10
2023-04-22T18:36:29.718Z,13.20
2023-04-22T18:39:32.046Z,13.20
2023-04-22T18:42:35.286Z,13.10
2023-04-22T18:45:37.150Z,13.10
2023-04-22T18:48:39.883Z,13.10
2023-04-22T18:51:42.177Z,13.10
2023-04-22T18:54:44.426Z,13.10
2023-04-22T18:57:46.355Z,13.00
2023-04-22T19:00:48.303Z,13.00
2023-04-22T19:03:50.400Z,12.90
2023-04-22T19:06:53.089Z,12.90
2023-04-22T19:09:54.960Z,12.90
2023-04-22T19:12:56.782Z,12.90
2023-04-22T19:15:58.690Z,12.80
2023-04-22T19:19:01.352Z,12.90
2023-04-22T19:22:03.665Z,12.80
2023-04-22T19:25:07.979Z,12.80
2023-04-22T19:28:09.807Z,12.80
2023-04-22T19:31:11.607Z,12.80
2023-04-22T19:34:13.393Z,12.80
2023-04-22T19:37:15.590Z,12.70
2023-04-22T19:40:18.723Z,12.70
2023-04-22T19:43:22.801Z,12.70
2023-04-22T19:46:24.821Z,12.80
2023-04-22T19:49:27.094Z,12.80
2023-04-22T19:52:29.842Z,12.80
2023-04-22T19:55:33.783Z,12.80
2023-04-22T19:58:36.010Z,12.70
2023-04-22T20:01:38.418Z,12.70
2023-04-22T20:04:41.071Z,12.80
2023-04-22T20:07:49.017Z,12.70
2023-04-22T20:10:52.166Z,12.60
2023-04-22T20:13:54.463Z,12.60
2023-04-22T20:16:56.733Z,12.60
2023-04-22T20:20:04.928Z,12.60
2023-04-22T20:23:10.580Z,12.60
2023-04-22T20:26:13.321Z,12.60
2023-04-22T20:29:17.404Z,12.60
2023-04-22T20:32:19.513Z,12.50
2023-04-22T20:35:21.580Z,12.50
2023-04-22T20:38:25.365Z,12.40
2023-04-22T20:41:40.990Z,12.30
2023-04-22T20:44:47.938Z,12.30
2023-04-22T20:47:49.834Z,12.30
2023-04-22T20:50:56.361Z,12.10
2023-04-22T20:53:58.486Z,12.10
2023-04-22T20:57:00.596Z,12.10
2023-04-22T21:00:02.381Z,12.10
2023-04-22T21:03:09.051Z,12.00
2023-04-22T21:06:11.171Z,12.00
2023-04-22T21:09:14.898Z,12.00
2023-04-22T21:12:19.285Z,11.90
2023-04-22T21:15:21.452Z,11.80
2023-04-22T21:18:25.664Z,11.90
2023-04-22T21:21:33.885Z,11.80
2023-04-22T21:24:36.326Z,11.80
2023-04-22T21:27:39.087Z,12.00
2023-04-22T21:30:41.364Z,12.00
2023-04-22T21:33:46.273Z,11.90
2023-04-22T21:36:48.274Z,11.80
2023-04-22T21:39:52.502Z,11.60
2023-04-22T21:42:55.468Z,11.60
2023-04-22T21:45:57.295Z,11.50
2023-04-22T21:48:59.922Z,11.60
2023-04-22T21:52:02.724Z,11.50
2023-04-22T21:55:05.902Z,11.60
2023-04-22T21:58:08.196Z,11.50
2023-04-22T22:01:10.146Z,11.50
2023-04-22T22:04:14.780Z,11.50
2023-04-22T22:07:18.431Z,11.40
2023-04-22T22:10:21.041Z,11.50
2023-04-22T22:13:22.811Z,11.50
2023-04-22T22:16:25.866Z,11.40
2023-04-22T22:19:30.566Z,11.40
2023-04-22T22:22:33.692Z,11.40
2023-04-22T22:25:36.458Z,11.50
2023-04-22T22:28:38.690Z,11.50
2023-04-22T22:31:41.387Z,11.50
2023-04-22T22:34:48.816Z,11.40
2023-04-22T22:37:50.851Z,11.40
2023-04-22T22:40:52.689Z,11.30
2023-04-22T22:43:55.026Z,11.30
2023-04-22T22:46:58.608Z,11.30
2023-04-22T22:50:00.659Z,11.20
2023-04-22T22:53:02.632Z,11.30
2023-04-22T22:56:04.563Z,11.30
2023-04-22T22:59:06.528Z,11.30
2023-04-22T23:02:08.536Z,11.30
2023-04-22T23:05:13.333Z,11.30
2023-04-22T23:08:15.127Z,11.00
2023-04-22T23:11:16.989Z,11.00
2023-04-22T23:14:20.091Z,11.00
2023-04-22T23:17:23.234Z,11.00
2023-04-22T23:20:26.030Z,11.10
2023-04-22T23:23:31.738Z,11.10
2023-04-22T23:26:34.561Z,11.20
2023-04-22T23:29:38.420Z,11.30
2023-04-22T23:32:42.690Z,11.40
2023-04-22T23:35:47.432Z,11.40
2023-04-22T23:38:49.686Z,11.40
2023-04-22T23:41:51.470Z,11.40
2023-04-22T23:44:56.453Z,11.40
2023-04-22T23:48:00.587Z,11.40
2023-04-22T23:51:02.391Z,11.40
2023-04-22T23:54:04.307Z,11.40
2023-04-22T23:57:06.540Z,11.40
